Terminal Aerodrome Forecast
Issued by NWS Corpus Christi, TX

Home | Current Version | Previous Version | Text Only | Print | Product List | Glossary On
Versions: 1 2 3 4 5 6 7 8 9 10 11 12 13 14 15
000
FTUS44 KCRP 311100
TAFVCT
TAF
KVCT 311127Z 3112/0112 VRB05KT P6SM SCT025
      TEMPO 3112/3116 BKN018
     FM311700 17013KT P6SM SCT035 SCT250
     FM010300 VRB06KT P6SM VCTS SCT030CB BKN120 PROB30 0103/0109 3SM
      TS BR BKN030CB=

USA.gov is the U.S. government's official web portal to all federal, state and local government web resources and services.